Etusivu
METAR-TAF:

METAR-TAF

Lentoasemat :

Vamdrup

Kolding, Tanska

Leveyspiiri: 55-26N, Pituuspiiri: 009-20E, korkeus merenpinnasta: 44 m

Tämänhetkinen sää

Tämä raportti tehtiin 53 minuuttia sitten, kello 14.50 UTC
Tuuli 14 kn lännestä
Lämpötila 10°C
Kosteus 87%
Ilmanpaine 1029 hPa
Näkyvyys: 7000 m
Hajonneita pilviä 1200 ft:n korkeudessa

METAR: EKVD 211450Z 26014KT 7000 BKN012 10/08 Q1029

Aika: 16:43 (15:43 UTC)

Sääennuste

Tämä raportti tehtiin 3 tuntia ja 50 minuuttia sitten, kello 11.53 UTC
Ennuste voimassa 21. päivästä klo 12 UTC - 21. päivään klo 17 UTC
Tuuli 14 kn lännestä/lounaasta
Näkyvyys: 6000 m
Hajonneita pilviä 1200 ft:n korkeudessa
Ajoittain
21. päivästä klo 12 UTC - 21. päivään klo 17 UTC
Näkyvyys: 1500 m
Hajonneita pilviä 400 ft:n korkeudessa
utua

TAF: EKVD 211153Z 2112/2117 24014KT 6000 BKN012 TEMPO 2112/2117 1500 BR BKN004

Säähavainnot ja -ennusteet yli 4000 lentoasemalta (METAR- ja TAF-raportit).

Käytössä olevat sääasemat on merkitty karttaan keltaisilla ja punaisilla pisteillä.

Aseta hiiri pisteen päälle nähdäksesi sääaseman nimen.

Klikkaa sitten nähdäksesi säähavainnot ja -ennusteet.

Kartan vaihtaminen: klikkaa mustalla rastilla varustettuja vihreitä pisteitä, niin voit zoomata sisään; viivalla varustettua vihreää pistettä, niin voit zoomata ulos tai vihreitä nuolia, niin pääset viereisille kartoille.


METAR-TAF: